createdAt,value
2022-12-20T00:01:32.714Z,6.10
2022-12-20T00:04:02.589Z,6.80
2022-12-20T00:06:29.917Z,6.37
2022-12-20T00:08:59.224Z,7.03
2022-12-20T00:11:27.759Z,5.70
2022-12-20T00:13:54.877Z,7.00
2022-12-20T00:16:24.835Z,6.67
2022-12-20T00:18:54.090Z,5.90
2022-12-20T00:21:21.464Z,6.47
2022-12-20T00:23:48.492Z,6.87
2022-12-20T00:26:20.742Z,7.67
2022-12-20T00:28:48.080Z,6.97
2022-12-20T00:31:17.312Z,7.10
2022-12-20T00:33:50.353Z,6.10
2022-12-20T00:36:18.791Z,6.20
2022-12-20T00:38:48.626Z,6.97
2022-12-20T00:41:21.572Z,6.33
2022-12-20T00:43:48.973Z,6.23
2022-12-20T00:46:17.985Z,6.83
2022-12-20T00:48:45.762Z,6.50
2022-12-20T00:51:19.548Z,6.40
2022-12-20T00:53:47.236Z,6.80
2022-12-20T00:56:14.952Z,7.30
2022-12-20T00:58:43.894Z,6.30
2022-12-20T01:01:25.894Z,6.17
2022-12-20T01:03:53.743Z,6.70
2022-12-20T01:06:21.830Z,6.90
2022-12-20T01:08:48.875Z,7.30
2022-12-20T01:11:19.424Z,6.63
2022-12-20T01:13:48.945Z,6.27
2022-12-20T01:16:19.844Z,7.50
2022-12-20T01:18:47.807Z,7.07
2022-12-20T01:21:16.807Z,6.77
2022-12-20T01:23:43.897Z,7.87
2022-12-20T01:26:14.127Z,7.47
2022-12-20T01:28:43.231Z,6.73
2022-12-20T01:31:13.113Z,6.47
2022-12-20T01:33:40.218Z,7.20
2022-12-20T01:36:11.349Z,6.87
2022-12-20T01:38:38.633Z,6.57
2022-12-20T01:41:05.955Z,6.90
2022-12-20T01:43:54.172Z,6.27
2022-12-20T01:46:24.330Z,6.40
2022-12-20T01:49:01.190Z,6.50
2022-12-20T01:51:32.265Z,6.88
2022-12-20T01:54:09.638Z,6.80
2022-12-20T01:56:40.581Z,6.90
2022-12-20T01:59:08.679Z,6.47
2022-12-20T02:01:36.169Z,6.37
2022-12-20T02:04:03.809Z,7.17
2022-12-20T02:06:30.864Z,6.77
2022-12-20T02:09:03.940Z,6.93
2022-12-20T02:12:02.457Z,6.80
2022-12-20T02:14:43.114Z,6.77
2022-12-20T02:17:16.480Z,6.60
2022-12-20T02:20:21.901Z,5.73
2022-12-20T02:23:00.632Z,6.70
2022-12-20T02:25:43.848Z,6.73
2022-12-20T02:28:47.305Z,7.73
2022-12-20T02:31:19.197Z,7.03
2022-12-20T02:33:48.954Z,7.10
2022-12-20T02:36:19.016Z,7.40
2022-12-20T02:38:49.541Z,6.90
2022-12-20T02:41:36.940Z,7.00
2022-12-20T02:44:31.140Z,7.40
2022-12-20T02:47:02.951Z,7.10
2022-12-20T02:49:34.580Z,6.93
2022-12-20T02:52:03.015Z,7.27
2022-12-20T02:54:30.356Z,7.87
2022-12-20T02:57:43.219Z,6.73
2022-12-20T03:00:16.712Z,6.13
2022-12-20T03:03:04.654Z,6.63
2022-12-20T03:05:35.159Z,7.60
2022-12-20T03:08:02.439Z,7.23
2022-12-20T03:10:30.099Z,7.83
2022-12-20T03:12:57.100Z,8.33
2022-12-20T03:15:24.377Z,6.93
2022-12-20T03:17:54.478Z,5.80
2022-12-20T03:20:22.691Z,7.20
2022-12-20T03:22:49.656Z,6.50
2022-12-20T03:25:17.442Z,7.47
2022-12-20T03:27:44.540Z,6.87
2022-12-20T03:30:12.632Z,6.83
2022-12-20T03:32:39.899Z,6.77
2022-12-20T03:35:09.019Z,7.07
2022-12-20T03:37:38.738Z,6.90
2022-12-20T03:40:07.695Z,6.77
2022-12-20T03:42:35.087Z,6.83
2022-12-20T03:45:02.835Z,6.63
2022-12-20T03:47:31.955Z,6.57
2022-12-20T03:49:58.961Z,6.80
2022-12-20T03:52:27.417Z,7.73
2022-12-20T03:54:54.459Z,6.50
2022-12-20T03:57:27.114Z,7.57
2022-12-20T03:59:55.163Z,7.20
2022-12-20T04:02:23.091Z,6.70
2022-12-20T04:04:51.131Z,7.40
2022-12-20T04:07:18.338Z,7.53
2022-12-20T04:09:47.265Z,7.17
2022-12-20T04:12:15.903Z,7.10
2022-12-20T04:14:43.683Z,7.13
2022-12-20T04:17:12.269Z,7.03
2022-12-20T04:19:39.937Z,8.17
2022-12-20T04:22:08.437Z,7.67
2022-12-20T04:24:47.079Z,8.30
2022-12-20T04:27:25.948Z,8.20
2022-12-20T04:29:55.259Z,7.77
2022-12-20T04:32:23.323Z,8.80
2022-12-20T04:34:50.291Z,9.00
2022-12-20T04:37:17.802Z,8.73
2022-12-20T04:39:49.682Z,8.47
2022-12-20T04:42:34.560Z,8.70
2022-12-20T04:45:01.594Z,8.43
2022-12-20T04:47:31.332Z,8.97
2022-12-20T04:49:58.491Z,8.67
2022-12-20T04:52:47.901Z,8.90
2022-12-20T04:55:16.292Z,9.03
2022-12-20T04:57:43.340Z,9.07
2022-12-20T05:00:12.026Z,9.30
2022-12-20T05:02:43.497Z,9.70
2022-12-20T05:05:14.304Z,8.20
2022-12-20T05:07:47.876Z,8.27
2022-12-20T05:10:14.865Z,9.13
2022-12-20T05:12:42.543Z,9.30
2022-12-20T05:15:14.881Z,9.60
2022-12-20T05:17:43.284Z,8.67
2022-12-20T05:20:12.369Z,8.83
2022-12-20T05:22:58.542Z,8.80
2022-12-20T05:25:44.093Z,9.37
2022-12-20T05:28:14.372Z,9.23
2022-12-20T05:30:41.364Z,8.53
2022-12-20T05:33:08.340Z,10.37
2022-12-20T05:35:35.331Z,8.63
2022-12-20T05:38:10.371Z,8.87
2022-12-20T05:40:39.912Z,9.07
2022-12-20T05:43:07.537Z,8.43
2022-12-20T05:45:52.983Z,8.75
2022-12-20T05:48:29.327Z,8.53
2022-12-20T05:50:56.644Z,7.97
2022-12-20T05:53:26.838Z,8.87
2022-12-20T05:55:57.682Z,8.10
2022-12-20T05:58:37.660Z,8.50
2022-12-20T06:01:08.073Z,9.17
2022-12-20T06:03:39.533Z,10.07
2022-12-20T06:06:15.731Z,8.70
2022-12-20T06:08:46.161Z,9.20
2022-12-20T06:11:25.768Z,9.30
2022-12-20T06:14:01.381Z,9.33
2022-12-20T06:16:28.880Z,8.30
2022-12-20T06:18:57.440Z,9.47
2022-12-20T06:21:24.643Z,9.23
2022-12-20T06:23:53.511Z,8.90
2022-12-20T06:26:23.453Z,9.10
2022-12-20T06:28:54.825Z,9.77
2022-12-20T06:31:26.094Z,7.97
2022-12-20T06:33:54.831Z,9.13
2022-12-20T06:36:23.926Z,9.80
2022-12-20T06:38:52.210Z,9.67
2022-12-20T06:41:19.600Z,8.60
2022-12-20T06:43:47.375Z,12.57
2022-12-20T06:46:14.714Z,8.97
2022-12-20T06:48:42.147Z,8.63
2022-12-20T06:51:11.295Z,9.30
2022-12-20T06:53:38.655Z,8.90
2022-12-20T06:56:06.056Z,7.73
2022-12-20T06:58:33.111Z,7.73
2022-12-20T07:01:00.894Z,8.00
2022-12-20T07:03:28.062Z,7.63
2022-12-20T07:05:55.612Z,7.90
2022-12-20T07:08:23.267Z,7.47
2022-12-20T07:10:52.806Z,8.30
2022-12-20T07:13:20.298Z,6.90
2022-12-20T07:15:47.297Z,6.77
2022-12-20T07:18:14.610Z,6.40
2022-12-20T07:20:41.691Z,7.20
2022-12-20T07:23:08.670Z,8.03
2022-12-20T07:25:35.740Z,6.37
2022-12-20T07:28:03.298Z,6.90
2022-12-20T07:30:31.402Z,5.60
2022-12-20T07:32:59.384Z,6.07
2022-12-20T07:35:26.831Z,6.50
2022-12-20T07:37:53.795Z,5.87
2022-12-20T07:40:20.895Z,5.27
2022-12-20T07:42:49.086Z,5.43
2022-12-20T07:45:16.507Z,5.70
2022-12-20T07:47:44.076Z,5.73
2022-12-20T07:50:11.975Z,4.60
2022-12-20T07:52:43.100Z,5.50
2022-12-20T07:55:12.211Z,5.03
2022-12-20T07:57:51.711Z,5.00
2022-12-20T08:00:19.161Z,5.30
2022-12-20T08:02:57.966Z,4.37
2022-12-20T08:05:26.186Z,4.37
2022-12-20T08:07:59.394Z,4.40
2022-12-20T08:10:27.925Z,5.13
2022-12-20T08:12:55.585Z,5.10
2022-12-20T08:15:23.287Z,5.07
2022-12-20T08:17:50.610Z,5.50
2022-12-20T08:20:18.210Z,5.30
2022-12-20T08:22:45.358Z,4.73
2022-12-20T08:25:12.625Z,4.53
2022-12-20T08:27:39.980Z,4.77
2022-12-20T08:30:08.569Z,4.43
2022-12-20T08:32:36.454Z,4.67
2022-12-20T08:35:04.954Z,5.30
2022-12-20T08:37:32.021Z,4.50
2022-12-20T08:39:59.127Z,4.93
2022-12-20T08:42:26.093Z,4.90
2022-12-20T08:44:53.126Z,5.13
2022-12-20T08:47:20.079Z,4.63
2022-12-20T08:49:48.013Z,4.60
2022-12-20T08:52:15.676Z,4.47
2022-12-20T08:54:42.689Z,4.43
2022-12-20T08:57:09.675Z,4.87
2022-12-20T08:59:36.643Z,4.23
2022-12-20T09:02:03.855Z,4.90
2022-12-20T09:04:31.098Z,4.83
2022-12-20T09:06:58.054Z,4.97
2022-12-20T09:09:25.029Z,4.80
2022-12-20T09:11:52.069Z,4.97
2022-12-20T09:14:19.240Z,4.23
2022-12-20T09:16:46.191Z,4.33
2022-12-20T09:19:14.757Z,5.33
2022-12-20T09:21:41.951Z,5.73
2022-12-20T09:24:10.260Z,4.63
2022-12-20T09:26:37.423Z,4.97
2022-12-20T09:29:05.476Z,4.70
2022-12-20T09:31:32.600Z,5.30
2022-12-20T09:33:59.849Z,5.23
2022-12-20T09:36:29.730Z,5.53
2022-12-20T09:38:57.662Z,6.00
2022-12-20T09:41:33.675Z,4.80
2022-12-20T09:44:11.076Z,4.93
2022-12-20T09:46:40.132Z,4.40
2022-12-20T09:49:07.419Z,5.50
2022-12-20T09:51:49.560Z,6.20
2022-12-20T09:54:19.283Z,5.28
2022-12-20T09:57:22.700Z,4.43
2022-12-20T09:59:50.228Z,5.40
2022-12-20T10:05:26.061Z,5.83
2022-12-20T10:07:58.545Z,5.80
2022-12-20T10:10:25.672Z,5.87
2022-12-20T10:13:15.686Z,5.47
2022-12-20T10:15:58.730Z,4.87
2022-12-20T10:18:39.467Z,5.67
2022-12-20T10:21:15.207Z,5.13
2022-12-20T10:24:30.564Z,4.53
2022-12-20T10:27:12.791Z,4.63
2022-12-20T10:29:41.060Z,5.37
2022-12-20T10:32:21.207Z,5.20
2022-12-20T10:35:00.133Z,5.30
2022-12-20T10:37:27.415Z,5.70
2022-12-20T10:39:54.473Z,4.70
2022-12-20T10:42:40.811Z,4.87
2022-12-20T10:45:35.673Z,4.63
2022-12-20T10:48:07.055Z,5.70
2022-12-20T10:50:34.466Z,4.93
2022-12-20T10:53:13.559Z,4.70
2022-12-20T10:55:42.549Z,4.60
2022-12-20T10:58:21.885Z,4.97
2022-12-20T11:00:49.888Z,4.90
2022-12-20T11:03:22.605Z,5.30
2022-12-20T11:06:17.195Z,4.77
2022-12-20T11:08:52.523Z,4.60
2022-12-20T11:11:25.232Z,4.83
2022-12-20T11:13:52.870Z,4.80
2022-12-20T11:16:36.993Z,6.60
2022-12-20T11:19:07.004Z,4.80
2022-12-20T11:22:08.059Z,4.33
2022-12-20T11:24:59.935Z,5.00
2022-12-20T11:28:05.329Z,4.50
2022-12-20T11:31:01.914Z,5.43
2022-12-20T11:33:47.470Z,6.50
2022-12-20T11:36:33.204Z,5.80
2022-12-20T11:39:19.734Z,5.40
2022-12-20T11:41:59.428Z,5.17
2022-12-20T11:44:53.977Z,4.83
2022-12-20T11:47:59.305Z,5.40
2022-12-20T11:51:08.655Z,5.57
2022-12-20T11:54:08.577Z,4.90
2022-12-20T11:56:44.527Z,5.27
2022-12-20T11:59:42.884Z,4.97
2022-12-20T12:02:14.808Z,4.80
2022-12-20T12:04:47.504Z,5.63
2022-12-20T12:07:21.808Z,5.53
2022-12-20T12:09:57.941Z,5.90
2022-12-20T12:12:34.218Z,6.55
2022-12-20T12:15:17.341Z,6.15
2022-12-20T12:18:05.573Z,6.63
2022-12-20T12:20:45.147Z,7.93
2022-12-20T12:23:35.556Z,6.67
2022-12-20T12:26:40.477Z,7.00
2022-12-20T12:29:12.723Z,7.20
2022-12-20T12:31:43.891Z,6.93
2022-12-20T12:34:52.143Z,7.90
2022-12-20T12:37:43.237Z,6.93
2022-12-20T12:40:19.350Z,6.13
2022-12-20T12:43:01.257Z,6.23
2022-12-20T12:45:31.743Z,7.13
2022-12-20T12:48:12.657Z,7.37
2022-12-20T12:50:46.158Z,6.03
2022-12-20T12:53:15.189Z,6.03
2022-12-20T12:55:48.599Z,6.27
2022-12-20T12:58:36.072Z,5.63
2022-12-20T13:01:12.912Z,6.13
2022-12-20T13:06:35.685Z,5.63
2022-12-20T13:09:03.703Z,5.43
2022-12-20T13:11:36.111Z,5.13
2022-12-20T13:14:18.406Z,5.03
2022-12-20T13:17:11.570Z,5.93
2022-12-20T13:19:36.331Z,5.33
2022-12-20T13:22:06.271Z,4.67
2022-12-20T13:24:50.901Z,4.70
2022-12-20T13:27:27.288Z,5.70
2022-12-20T13:29:56.663Z,5.55
2022-12-20T13:32:48.649Z,5.87
2022-12-20T13:35:24.615Z,6.17
2022-12-20T13:38:12.707Z,5.20
2022-12-20T13:40:52.769Z,5.30
2022-12-20T13:43:19.700Z,5.30
2022-12-20T13:45:50.999Z,5.33
2022-12-20T13:48:24.057Z,5.33
2022-12-20T13:50:56.210Z,4.97
2022-12-20T13:53:27.307Z,4.50
2022-12-20T13:55:55.567Z,5.53
2022-12-20T13:58:26.991Z,5.73
2022-12-20T14:01:00.958Z,5.77
2022-12-20T14:03:30.998Z,4.73
2022-12-20T14:06:02.839Z,6.03
2022-12-20T14:08:36.638Z,5.30
2022-12-20T14:11:12.547Z,5.57
2022-12-20T14:13:40.343Z,5.27
2022-12-20T14:16:14.897Z,6.87
2022-12-20T14:18:42.620Z,6.33
2022-12-20T14:21:10.610Z,4.93
2022-12-20T14:23:47.980Z,5.17
2022-12-20T14:26:22.451Z,5.20
2022-12-20T14:28:55.525Z,5.40
2022-12-20T14:31:37.436Z,5.93
2022-12-20T14:34:16.488Z,6.53
2022-12-20T14:36:46.166Z,5.60
2022-12-20T14:39:26.531Z,5.70
2022-12-20T14:42:01.797Z,4.90
2022-12-20T14:44:32.516Z,5.93
2022-12-20T14:47:28.636Z,6.67
2022-12-20T14:49:59.207Z,6.23
2022-12-20T14:52:29.202Z,5.17
2022-12-20T14:55:11.932Z,6.67
2022-12-20T14:57:46.430Z,6.20
2022-12-20T15:00:19.579Z,5.73
2022-12-20T15:03:01.928Z,5.97
2022-12-20T15:05:35.422Z,6.00
2022-12-20T15:08:22.706Z,5.93
2022-12-20T15:10:57.584Z,6.00
2022-12-20T15:13:37.219Z,6.13
2022-12-20T15:16:20.013Z,5.47
2022-12-20T15:18:48.984Z,7.00
2022-12-20T15:21:38.601Z,6.70
2022-12-20T15:24:10.354Z,6.20
2022-12-20T15:26:37.868Z,7.03
2022-12-20T15:29:05.715Z,6.40
2022-12-20T15:31:36.770Z,6.60
2022-12-20T15:34:12.103Z,6.23
2022-12-20T15:36:39.149Z,5.50
2022-12-20T15:39:14.132Z,5.77
2022-12-20T15:41:46.444Z,6.23
2022-12-20T15:44:17.420Z,5.73
2022-12-20T15:46:44.876Z,6.37
2022-12-20T15:49:17.157Z,6.07
2022-12-20T15:51:46.844Z,6.83
2022-12-20T15:54:35.887Z,6.70
2022-12-20T15:57:09.437Z,6.37
2022-12-20T16:02:26.713Z,6.20
2022-12-20T16:04:55.432Z,6.87
2022-12-20T16:07:23.704Z,6.83
2022-12-20T16:09:50.908Z,7.50
2022-12-20T16:12:32.543Z,7.27
2022-12-20T16:14:59.618Z,7.10
2022-12-20T16:17:26.671Z,6.27
2022-12-20T16:19:53.717Z,7.97
2022-12-20T16:22:22.880Z,8.77
2022-12-20T16:24:50.275Z,7.90
2022-12-20T16:27:17.709Z,6.90
2022-12-20T16:29:45.650Z,8.40
2022-12-20T16:32:18.492Z,7.90
2022-12-20T16:34:46.334Z,7.87
2022-12-20T16:37:13.443Z,7.97
2022-12-20T16:39:41.155Z,7.50
2022-12-20T16:42:16.164Z,8.03
2022-12-20T16:44:45.507Z,9.80
2022-12-20T16:47:13.961Z,7.30
2022-12-20T16:49:47.348Z,8.40
2022-12-20T16:52:19.252Z,7.23
2022-12-20T16:54:46.327Z,7.40
2022-12-20T16:57:13.278Z,8.27
2022-12-20T16:59:40.236Z,7.80
2022-12-20T17:02:29.819Z,6.90
2022-12-20T17:04:57.008Z,8.13
2022-12-20T17:07:24.376Z,8.40
2022-12-20T17:09:52.117Z,7.73
2022-12-20T17:12:21.355Z,8.03
2022-12-20T17:14:49.428Z,7.47
2022-12-20T17:17:17.594Z,7.37
2022-12-20T17:19:44.993Z,8.07
2022-12-20T17:22:25.073Z,7.43
2022-12-20T17:24:52.150Z,8.60
2022-12-20T17:27:19.168Z,7.60
2022-12-20T17:29:46.209Z,8.17
2022-12-20T17:32:25.881Z,7.67
2022-12-20T17:34:53.790Z,8.27
2022-12-20T17:37:21.663Z,7.90
2022-12-20T17:39:49.048Z,6.63
2022-12-20T17:42:17.178Z,6.93
2022-12-20T17:44:46.382Z,7.77
2022-12-20T17:47:13.724Z,8.07
2022-12-20T17:49:40.832Z,7.53
2022-12-20T17:52:15.647Z,6.50
2022-12-20T17:54:43.024Z,8.20
2022-12-20T17:57:16.390Z,6.70
2022-12-20T17:59:43.949Z,8.53
2022-12-20T18:02:21.545Z,7.20
2022-12-20T18:04:49.018Z,8.57
2022-12-20T18:07:16.198Z,7.13
2022-12-20T18:09:43.172Z,7.23
2022-12-20T18:12:11.045Z,7.43
2022-12-20T18:14:38.129Z,8.27
2022-12-20T18:17:05.271Z,8.03
2022-12-20T18:19:32.411Z,8.03
2022-12-20T18:22:00.221Z,7.70
2022-12-20T18:24:27.633Z,8.07
2022-12-20T18:26:54.720Z,8.33
2022-12-20T18:29:21.701Z,7.60
2022-12-20T18:31:48.726Z,7.27
2022-12-20T18:34:15.722Z,8.17
2022-12-20T18:36:42.780Z,8.17
2022-12-20T18:39:13.082Z,9.93
2022-12-20T18:41:43.074Z,10.17
2022-12-20T18:44:11.823Z,10.93
2022-12-20T18:46:39.305Z,9.07
2022-12-20T18:49:06.565Z,8.57
2022-12-20T18:51:38.407Z,10.00
2022-12-20T18:54:08.036Z,8.00
2022-12-20T18:56:37.406Z,7.60
2022-12-20T18:59:11.485Z,9.27
2022-12-20T19:01:40.560Z,8.30
2022-12-20T19:04:08.488Z,8.60
2022-12-20T19:06:36.960Z,8.73
2022-12-20T19:09:06.981Z,10.07
2022-12-20T19:11:34.419Z,8.30
2022-12-20T19:14:01.423Z,8.07
2022-12-20T19:16:32.120Z,8.67
2022-12-20T19:19:01.100Z,7.67
2022-12-20T19:21:33.740Z,8.33
2022-12-20T19:24:05.207Z,8.70
2022-12-20T19:26:32.816Z,8.50
2022-12-20T19:29:00.196Z,9.60
2022-12-20T19:31:29.975Z,9.67
2022-12-20T19:34:00.161Z,8.93
2022-12-20T19:36:32.634Z,9.67
2022-12-20T19:39:01.516Z,9.60
2022-12-20T19:41:31.075Z,8.60
2022-12-20T19:43:58.569Z,10.20
2022-12-20T19:46:29.436Z,8.97
2022-12-20T19:48:58.605Z,9.30
2022-12-20T19:51:27.600Z,9.87
2022-12-20T19:53:56.010Z,9.00
2022-12-20T19:56:26.444Z,9.00
2022-12-20T19:58:55.372Z,10.13
2022-12-20T20:01:26.037Z,9.40
2022-12-20T20:03:55.551Z,9.33
2022-12-20T20:06:23.361Z,9.97
2022-12-20T20:08:50.561Z,10.33
2022-12-20T20:11:19.235Z,10.00
2022-12-20T20:13:46.725Z,12.60
2022-12-20T20:16:20.019Z,10.63
2022-12-20T20:18:49.357Z,12.13
2022-12-20T20:21:21.370Z,11.77
2022-12-20T20:23:50.684Z,11.87
2022-12-20T20:26:20.888Z,13.30
2022-12-20T20:28:48.070Z,11.67
2022-12-20T20:31:17.288Z,12.10
2022-12-20T20:33:44.592Z,11.80
2022-12-20T20:36:17.443Z,11.00
2022-12-20T20:38:44.648Z,12.27
2022-12-20T20:41:12.109Z,12.63
2022-12-20T20:43:39.075Z,11.67
2022-12-20T20:46:07.856Z,12.20
2022-12-20T20:48:35.530Z,10.90
2022-12-20T20:51:02.660Z,12.17
2022-12-20T20:53:33.924Z,12.47
2022-12-20T20:56:02.966Z,11.70
2022-12-20T20:58:31.034Z,13.07
2022-12-20T21:01:00.784Z,13.03
2022-12-20T21:03:28.898Z,13.53
2022-12-20T21:08:43.816Z,11.80
2022-12-20T21:11:12.212Z,11.87
2022-12-20T21:13:39.453Z,11.60
2022-12-20T21:16:11.898Z,11.63
2022-12-20T21:18:39.175Z,12.27
2022-12-20T21:21:11.219Z,11.00
2022-12-20T21:23:39.360Z,10.90
2022-12-20T21:26:07.761Z,11.20
2022-12-20T21:28:35.805Z,10.30
2022-12-20T21:31:05.688Z,12.30
2022-12-20T21:33:33.037Z,9.83
2022-12-20T21:36:06.191Z,10.50
2022-12-20T21:38:33.888Z,12.07
2022-12-20T21:41:05.310Z,13.40
2022-12-20T21:43:32.764Z,11.77
2022-12-20T21:46:00.449Z,13.17
2022-12-20T21:48:27.827Z,11.30
2022-12-20T21:51:03.364Z,11.83
2022-12-20T21:53:31.637Z,11.30
2022-12-20T21:56:00.356Z,12.60
2022-12-20T21:58:29.308Z,11.57
2022-12-20T22:00:57.488Z,11.87
2022-12-20T22:03:25.742Z,12.37
2022-12-20T22:05:55.051Z,11.47
2022-12-20T22:08:23.039Z,10.57
2022-12-20T22:11:01.912Z,12.50
2022-12-20T22:13:33.108Z,12.30
2022-12-20T22:16:13.143Z,12.13
2022-12-20T22:18:40.863Z,13.18
2022-12-20T22:21:10.938Z,13.03
2022-12-20T22:23:38.215Z,14.13
2022-12-20T22:26:08.601Z,13.20
2022-12-20T22:28:36.490Z,12.80
2022-12-20T22:31:11.188Z,13.00
2022-12-20T22:33:38.332Z,12.83
2022-12-20T22:36:06.597Z,12.40
2022-12-20T22:38:34.155Z,11.50
2022-12-20T22:41:26.619Z,13.53
2022-12-20T22:43:54.452Z,13.93
2022-12-20T22:46:22.042Z,14.30
2022-12-20T22:48:49.397Z,13.50
2022-12-20T22:51:20.167Z,13.10
2022-12-20T22:53:49.272Z,12.60
2022-12-20T22:56:17.861Z,13.50
2022-12-20T22:58:45.325Z,13.73
2022-12-20T23:01:14.054Z,13.03
2022-12-20T23:03:41.781Z,14.30
2022-12-20T23:06:12.502Z,14.47
2022-12-20T23:08:40.027Z,14.07
2022-12-20T23:11:39.936Z,13.20
2022-12-20T23:14:30.572Z,15.03
2022-12-20T23:16:58.029Z,14.77
2022-12-20T23:19:25.162Z,14.53
2022-12-20T23:22:10.936Z,14.03
2022-12-20T23:24:37.970Z,14.40
2022-12-20T23:27:04.940Z,14.33
2022-12-20T23:29:32.025Z,14.97
2022-12-20T23:31:59.266Z,14.90
2022-12-20T23:34:26.333Z,14.33
2022-12-20T23:36:53.528Z,14.40
2022-12-20T23:39:20.617Z,14.17
2022-12-20T23:41:47.616Z,13.27
2022-12-20T23:44:14.617Z,15.53
2022-12-20T23:46:41.599Z,15.50
2022-12-20T23:49:09.060Z,14.80
2022-12-20T23:51:36.054Z,12.23
2022-12-20T23:54:03.152Z,13.37
2022-12-20T23:56:30.156Z,14.60
2022-12-20T23:58:57.891Z,14.77
